Time;durP1;ratioP1;P1;durP2;ratioP2;P2;SDS_P1;SDS_P2;PMS_P1;PMS_P2;Temp;Humidity;BMP_temperature;BMP_pressure;BME280_temperature;BME280_humidity;BME280_pressure;Samples;Min_cycle;Max_cycle;Signal;HPM_P1;HPM_P2
2024/04/24 00:00:09;;;;;;;11.48;6.70;;;;;;;;;;5454907;26;20009;-65
2024/04/24 00:02:34;;;;;;;10.95;6.40;;;;;;;;;;5453772;26;20467;-66
2024/04/24 00:05:04;;;;;;;11.00;6.40;;;;;;;;;;5453891;26;19999;-66
2024/04/24 00:07:29;;;;;;;10.55;6.20;;;;;;;;;;5454297;26;19995;-66
2024/04/24 00:09:55;;;;;;;10.35;6.10;;;;;;;;;;5453844;26;19990;-66
2024/04/24 00:12:21;;;;;;;10.57;6.20;;;;;;;;;;5453756;26;20009;-67
2024/04/24 00:14:47;;;;;;;10.65;6.25;;;;;;;;;;5453494;26;20421;-65
2024/04/24 00:17:13;;;;;;;10.18;6.03;;;;;;;;;;5454028;26;20367;-65
2024/04/24 00:19:39;;;;;;;10.32;6.07;;;;;;;;;;5453996;26;20393;-65
2024/04/24 00:22:05;;;;;;;10.10;5.90;;;;;;;;;;5454174;26;19998;-65
2024/04/24 00:24:31;;;;;;;9.95;5.85;;;;;;;;;;5453836;26;20341;-65
2024/04/24 00:26:57;;;;;;;10.57;6.20;;;;;;;;;;5453918;26;20057;-64
2024/04/24 00:29:23;;;;;;;10.80;6.30;;;;;;;;;;5453385;26;20121;-65
2024/04/24 00:31:50;;;;;;;10.20;6.00;;;;;;;;;;5453759;26;20018;-64
2024/04/24 00:34:16;;;;;;;11.10;6.50;;;;;;;;;;5453118;26;20006;-64
2024/04/24 00:36:42;;;;;;;10.75;6.28;;;;;;;;;;5454025;26;20461;-65
2024/04/24 00:39:08;;;;;;;10.57;6.32;;;;;;;;;;5448617;26;19994;-65
2024/04/24 00:41:34;;;;;;;11.98;7.35;;;;;;;;;;5449101;26;19995;-64
2024/04/24 00:44:00;;;;;;;10.40;6.15;;;;;;;;;;5448595;26;19999;-64
2024/04/24 00:46:27;;;;;;;10.40;6.10;;;;;;;;;;5449702;26;20002;-65
2024/04/24 00:48:53;;;;;;;9.80;5.80;;;;;;;;;;5449410;26;20113;-65
2024/04/24 00:51:20;;;;;;;10.70;6.30;;;;;;;;;;5449931;26;19999;-65
2024/04/24 00:53:46;;;;;;;9.80;5.80;;;;;;;;;;5448932;26;20006;-65
2024/04/24 00:56:12;;;;;;;10.20;5.97;;;;;;;;;;5449752;26;19995;-65
2024/04/24 00:58:38;;;;;;;9.68;5.72;;;;;;;;;;5449411;26;20365;-66
2024/04/24 01:01:05;;;;;;;9.73;5.70;;;;;;;;;;5447481;26;19998;-65
2024/04/24 01:03:31;;;;;;;9.90;5.80;;;;;;;;;;5448698;26;20348;-66
2024/04/24 01:05:57;;;;;;;10.07;5.97;;;;;;;;;;5449580;26;20410;-66
2024/04/24 01:08:23;;;;;;;10.05;5.90;;;;;;;;;;5447606;26;20633;-64
2024/04/24 01:10:56;;;;;;;9.93;5.88;;;;;;;;;;5448924;26;20045;-64
2024/04/24 01:13:22;;;;;;;10.13;6.13;;;;;;;;;;5448323;26;20312;-64
2024/04/24 01:15:51;;;;;;;10.43;6.10;;;;;;;;;;5448730;26;20077;-65
2024/04/24 01:18:17;;;;;;;9.93;5.85;;;;;;;;;;5449488;26;19995;-64
2024/04/24 01:20:43;;;;;;;10.30;6.03;;;;;;;;;;5449271;26;19986;-65
2024/04/24 01:23:18;;;;;;;10.68;6.28;;;;;;;;;;5448371;26;20026;-67
2024/04/24 01:25:50;;;;;;;9.85;5.80;;;;;;;;;;5449015;26;19999;-64
2024/04/24 01:28:17;;;;;;;10.40;6.10;;;;;;;;;;5448855;26;20001;-66
2024/04/24 01:30:42;;;;;;;11.10;6.60;;;;;;;;;;5448659;26;20041;-66
2024/04/24 01:33:08;;;;;;;11.25;6.85;;;;;;;;;;5426124;26;19996;-65
2024/04/24 01:35:34;;;;;;;15.25;7.57;;;;;;;;;;5412938;26;20453;-65
2024/04/24 01:38:00;;;;;;;12.48;6.90;;;;;;;;;;5412469;26;20075;-63
2024/04/24 01:40:26;;;;;;;10.45;6.10;;;;;;;;;;5412609;26;19996;-65
2024/04/24 01:42:52;;;;;;;10.40;6.10;;;;;;;;;;5412505;26;20017;-64
2024/04/24 01:45:18;;;;;;;10.50;6.10;;;;;;;;;;5412556;26;20032;-64
2024/04/24 01:47:44;;;;;;;10.48;6.13;;;;;;;;;;5412780;26;19995;-64
2024/04/24 01:50:10;;;;;;;13.18;6.43;;;;;;;;;;5411358;26;20010;-64
2024/04/24 01:52:36;;;;;;;10.00;5.90;;;;;;;;;;5412300;26;19995;-64
2024/04/24 01:55:02;;;;;;;9.90;5.80;;;;;;;;;;5412008;26;19995;-64
2024/04/24 01:57:28;;;;;;;9.68;5.70;;;;;;;;;;5412410;26;19991;-67
2024/04/24 01:59:54;;;;;;;10.52;6.03;;;;;;;;;;5411877;26;19995;-65
2024/04/24 02:02:20;;;;;;;10.27;6.00;;;;;;;;;;5412308;26;19991;-65
2024/04/24 02:04:46;;;;;;;9.93;5.82;;;;;;;;;;5411932;26;19988;-64
2024/04/24 02:07:12;;;;;;;9.68;5.63;;;;;;;;;;5410659;26;20533;-65
2024/04/24 02:09:38;;;;;;;9.88;5.80;;;;;;;;;;5412139;26;20017;-64
2024/04/24 02:12:04;;;;;;;10.50;6.20;;;;;;;;;;5412074;26;19998;-63
2024/04/24 02:14:30;;;;;;;10.65;6.20;;;;;;;;;;5412037;26;20011;-65
2024/04/24 02:16:56;;;;;;;10.90;6.35;;;;;;;;;;5412707;26;20011;-64
2024/04/24 02:19:22;;;;;;;10.50;6.10;;;;;;;;;;5412394;26;20003;-64
2024/04/24 02:21:48;;;;;;;10.57;6.20;;;;;;;;;;5411637;26;19999;-65
2024/04/24 02:25:33;;;;;;;11.20;6.40;;;;;;;;;;5412082;26;20015;-63
2024/04/24 02:27:06;;;;;;;10.25;6.03;;;;;;;;;;5412542;26;20006;-65
2024/04/24 02:29:32;;;;;;;10.50;6.18;;;;;;;;;;5412146;26;20000;-64
2024/04/24 02:31:58;;;;;;;10.25;6.00;;;;;;;;;;5412243;26;19992;-64
2024/04/24 02:34:24;;;;;;;10.32;6.05;;;;;;;;;;5411993;26;20002;-65
2024/04/24 02:36:50;;;;;;;11.35;7.05;;;;;;;;;;5411898;26;20712;-66
2024/04/24 02:39:16;;;;;;;10.50;6.13;;;;;;;;;;5411950;26;20107;-65
2024/04/24 02:41:42;;;;;;;10.32;6.10;;;;;;;;;;5411635;26;20057;-64
2024/04/24 02:44:08;;;;;;;10.73;6.30;;;;;;;;;;5411093;26;20026;-64
2024/04/24 02:46:34;;;;;;;10.32;6.10;;;;;;;;;;5412745;26;19992;-65
2024/04/24 02:49:00;;;;;;;10.50;6.10;;;;;;;;;;5411858;26;20465;-66
2024/04/24 02:51:26;;;;;;;10.75;6.30;;;;;;;;;;5411527;26;20011;-65
2024/04/24 02:53:52;;;;;;;10.20;6.00;;;;;;;;;;5411452;26;20065;-65
2024/04/24 02:56:18;;;;;;;10.13;5.97;;;;;;;;;;5411721;26;20010;-65
2024/04/24 02:58:44;;;;;;;10.40;6.10;;;;;;;;;;5411416;26;20005;-64
2024/04/24 03:01:13;;;;;;;11.48;7.55;;;;;;;;;;5410875;26;20072;-65
2024/04/24 03:03:39;;;;;;;10.95;6.43;;;;;;;;;;5410833;26;20411;-65
2024/04/24 03:06:05;;;;;;;10.70;6.30;;;;;;;;;;5410959;26;20023;-65
2024/04/24 03:08:31;;;;;;;11.55;6.88;;;;;;;;;;5411465;26;20440;-65
2024/04/24 03:10:57;;;;;;;11.32;6.68;;;;;;;;;;5411315;26;20089;-65
2024/04/24 03:13:23;;;;;;;11.20;6.45;;;;;;;;;;5410829;26;20003;-64
2024/04/24 03:15:49;;;;;;;10.68;6.22;;;;;;;;;;5411559;26;20064;-65
2024/04/24 03:18:15;;;;;;;10.88;6.40;;;;;;;;;;5411580;26;20006;-66
2024/04/24 03:20:41;;;;;;;10.85;6.45;;;;;;;;;;5410829;26;20006;-65
2024/04/24 03:23:07;;;;;;;11.10;6.68;;;;;;;;;;5410511;26;20005;-65
2024/04/24 03:25:33;;;;;;;10.20;6.03;;;;;;;;;;5409494;26;20003;-65
2024/04/24 03:27:59;;;;;;;12.02;6.20;;;;;;;;;;5410675;26;19999;-65
2024/04/24 03:30:25;;;;;;;14.48;6.47;;;;;;;;;;5409689;26;20011;-67
2024/04/24 03:32:51;;;;;;;10.45;6.10;;;;;;;;;;5420630;26;20045;-64
2024/04/24 03:35:17;;;;;;;11.15;6.65;;;;;;;;;;5429876;26;20006;-64
2024/04/24 03:37:43;;;;;;;11.40;7.35;;;;;;;;;;5409153;26;20045;-64
2024/04/24 03:40:09;;;;;;;10.20;6.00;;;;;;;;;;5433446;26;19995;-64
2024/04/24 03:42:35;;;;;;;9.80;5.80;;;;;;;;;;5446615;26;20018;-65
2024/04/24 03:45:02;;;;;;;10.20;6.05;;;;;;;;;;5446739;26;19998;-65
2024/04/24 03:47:28;;;;;;;10.85;6.57;;;;;;;;;;5442117;26;20018;-64
2024/04/24 03:49:54;;;;;;;10.23;6.00;;;;;;;;;;5431145;26;20065;-65
2024/04/24 03:52:20;;;;;;;15.55;6.47;;;;;;;;;;5446181;26;20332;-66
2024/04/24 03:54:46;;;;;;;9.88;5.80;;;;;;;;;;5446569;26;20006;-66
2024/04/24 03:57:12;;;;;;;9.43;5.60;;;;;;;;;;5446124;26;20630;-65
2024/04/24 03:59:38;;;;;;;10.23;6.20;;;;;;;;;;5446765;26;19990;-67
2024/04/24 04:02:05;;;;;;;10.60;6.40;;;;;;;;;;5443939;26;20002;-66
2024/04/24 04:04:31;;;;;;;10.30;6.00;;;;;;;;;;5441561;26;19995;-65
2024/04/24 04:06:57;;;;;;;10.85;6.30;;;;;;;;;;5410105;26;20347;-66
2024/04/24 04:09:23;;;;;;;9.90;5.88;;;;;;;;;;5410585;26;20007;-63
2024/04/24 04:11:49;;;;;;;11.35;7.13;;;;;;;;;;5410567;26;19992;-65
2024/04/24 04:14:15;;;;;;;10.40;6.13;;;;;;;;;;5410451;26;20446;-65
2024/04/24 04:16:41;;;;;;;10.30;6.05;;;;;;;;;;5413672;26;20008;-63
2024/04/24 04:19:06;;;;;;;10.60;6.35;;;;;;;;;;5413602;26;20079;-64
2024/04/24 04:21:32;;;;;;;10.35;6.07;;;;;;;;;;5413299;26;19996;-64
2024/04/24 04:23:58;;;;;;;10.00;5.90;;;;;;;;;;5413132;26;20334;-65
2024/04/24 04:26:24;;;;;;;10.10;6.00;;;;;;;;;;5414008;26;20002;-65
2024/04/24 04:28:50;;;;;;;9.30;5.50;;;;;;;;;;5413430;26;19999;-64
2024/04/24 04:31:16;;;;;;;12.45;9.23;;;;;;;;;;5413815;26;20002;-65
2024/04/24 04:33:45;;;;;;;9.85;5.78;;;;;;;;;;5412416;26;20076;-66
2024/04/24 04:36:11;;;;;;;9.80;5.78;;;;;;;;;;5413037;26;20473;-63
2024/04/24 04:38:37;;;;;;;9.52;5.63;;;;;;;;;;5413404;26;19998;-64
2024/04/24 04:41:03;;;;;;;10.65;6.88;;;;;;;;;;5413590;26;20338;-64
2024/04/24 04:43:29;;;;;;;10.57;6.53;;;;;;;;;;5412196;26;19991;-64
2024/04/24 04:45:56;;;;;;;9.88;5.82;;;;;;;;;;5412992;26;19991;-64
2024/04/24 04:48:22;;;;;;;10.30;6.10;;;;;;;;;;5411579;26;19988;-64
2024/04/24 04:50:48;;;;;;;10.10;6.00;;;;;;;;;;5413496;26;20042;-66
2024/04/24 04:53:14;;;;;;;10.05;5.93;;;;;;;;;;5412100;26;20462;-64
2024/04/24 04:55:40;;;;;;;9.93;5.88;;;;;;;;;;5412593;26;19995;-65
2024/04/24 04:58:06;;;;;;;10.82;6.32;;;;;;;;;;5412503;26;20095;-62
2024/04/24 05:00:32;;;;;;;9.90;5.80;;;;;;;;;;5413028;26;19995;-66
2024/04/24 05:02:58;;;;;;;10.10;5.85;;;;;;;;;;5411905;26;20526;-62
2024/04/24 05:05:25;;;;;;;10.77;6.20;;;;;;;;;;5412237;26;20008;-66
2024/04/24 05:07:50;;;;;;;9.80;5.80;;;;;;;;;;5412822;26;20309;-64
2024/04/24 05:10:16;;;;;;;10.85;6.38;;;;;;;;;;5413345;26;20072;-65
2024/04/24 05:12:42;;;;;;;9.82;5.80;;;;;;;;;;5412441;26;19999;-64
2024/04/24 05:15:09;;;;;;;9.80;5.80;;;;;;;;;;5412443;26;20011;-65
2024/04/24 05:17:35;;;;;;;10.75;6.30;;;;;;;;;;5412223;26;19996;-65
2024/04/24 05:20:01;;;;;;;10.25;6.00;;;;;;;;;;5412030;26;19995;-65
2024/04/24 05:22:36;;;;;;;10.55;6.15;;;;;;;;;;5411351;26;20467;-66
2024/04/24 05:25:03;;;;;;;10.27;6.00;;;;;;;;;;5411973;26;20003;-65
2024/04/24 05:30:14;;;;;;;12.02;6.60;;;;;;;;;;5412507;26;20072;-64
2024/04/24 05:32:40;;;;;;;10.80;6.28;;;;;;;;;;5412812;26;20007;-64
2024/04/24 05:35:06;;;;;;;10.40;6.10;;;;;;;;;;5412151;26;20080;-66
2024/04/24 05:37:32;;;;;;;10.70;6.20;;;;;;;;;;5413498;26;20387;-66
2024/04/24 05:39:58;;;;;;;10.70;6.22;;;;;;;;;;5412900;26;19996;-64
2024/04/24 05:42:24;;;;;;;11.23;6.63;;;;;;;;;;5411674;26;19991;-64
2024/04/24 05:44:50;;;;;;;11.73;6.90;;;;;;;;;;5411346;26;20000;-63
2024/04/24 05:47:16;;;;;;;14.02;7.40;;;;;;;;;;5411957;26;20010;-66
2024/04/24 05:49:42;;;;;;;14.40;7.97;;;;;;;;;;5411813;26;19995;-67
2024/04/24 05:52:08;;;;;;;11.85;6.95;;;;;;;;;;5412634;26;20003;-67
2024/04/24 05:54:35;;;;;;;13.45;8.55;;;;;;;;;;5411208;26;19999;-66
2024/04/24 05:57:01;;;;;;;13.55;8.55;;;;;;;;;;5411158;26;20009;-65
2024/04/24 05:59:27;;;;;;;13.55;8.52;;;;;;;;;;5411721;26;20445;-65
2024/04/24 06:01:54;;;;;;;17.63;11.52;;;;;;;;;;5411544;26;20006;-65
2024/04/24 06:04:20;;;;;;;15.60;13.90;;;;;;;;;;5409997;26;19991;-65
2024/04/24 06:06:46;;;;;;;16.95;15.25;;;;;;;;;;5411618;26;20040;-66
2024/04/24 06:09:12;;;;;;;16.42;14.73;;;;;;;;;;5411404;26;20294;-64
2024/04/24 06:11:38;;;;;;;16.50;14.80;;;;;;;;;;5411851;26;20003;-65
2024/04/24 06:14:04;;;;;;;17.42;15.73;;;;;;;;;;5411215;26;20041;-64
2024/04/24 06:16:30;;;;;;;17.42;15.73;;;;;;;;;;5411071;26;20036;-65
2024/04/24 06:18:56;;;;;;;19.55;17.75;;;;;;;;;;5411822;26;20036;-64
2024/04/24 06:21:22;;;;;;;21.08;19.17;;;;;;;;;;5410709;26;20068;-65
2024/04/24 06:23:48;;;;;;;22.85;20.92;;;;;;;;;;5410449;26;20031;-64
2024/04/24 06:26:14;;;;;;;22.70;20.80;;;;;;;;;;5411035;26;19995;-64
2024/04/24 06:28:40;;;;;;;22.15;20.25;;;;;;;;;;5409389;26;20302;-64
2024/04/24 06:31:06;;;;;;;22.05;20.13;;;;;;;;;;5411180;26;20041;-63
2024/04/24 06:33:32;;;;;;;20.40;18.60;;;;;;;;;;5410191;26;20032;-63
2024/04/24 06:36:02;;;;;;;19.48;17.67;;;;;;;;;;5410243;26;20295;-64
2024/04/24 06:38:28;;;;;;;19.45;17.55;;;;;;;;;;5411255;26;20002;-63
2024/04/24 06:40:54;;;;;;;20.58;18.67;;;;;;;;;;5411531;26;20015;-64
2024/04/24 06:43:20;;;;;;;23.02;15.95;;;;;;;;;;5411024;26;20064;-64
2024/04/24 06:45:46;;;;;;;17.95;16.15;;;;;;;;;;5411270;26;19992;-64
2024/04/24 06:48:12;;;;;;;17.10;15.40;;;;;;;;;;5411359;26;20425;-64
2024/04/24 06:50:38;;;;;;;17.25;15.55;;;;;;;;;;5411094;26;19987;-65
2024/04/24 06:53:04;;;;;;;17.08;15.38;;;;;;;;;;5410272;26;20060;-64
2024/04/24 06:55:30;;;;;;;17.05;15.35;;;;;;;;;;5411458;26;20007;-64
2024/04/24 06:57:56;;;;;;;17.23;15.52;;;;;;;;;;5410402;26;20355;-65
2024/04/24 07:00:24;;;;;;;16.77;15.07;;;;;;;;;;5410931;26;20064;-64
2024/04/24 07:02:50;;;;;;;17.70;15.90;;;;;;;;;;5411075;26;19992;-65
2024/04/24 07:05:16;;;;;;;17.63;15.90;;;;;;;;;;5409245;26;20003;-63
2024/04/24 07:07:42;;;;;;;18.80;17.00;;;;;;;;;;5411632;26;20042;-63
2024/04/24 07:10:08;;;;;;;18.50;16.70;;;;;;;;;;5409204;26;19992;-65
2024/04/24 07:12:34;;;;;;;18.08;16.27;;;;;;;;;;5410509;26;20006;-65
2024/04/24 07:15:00;;;;;;;17.88;16.10;;;;;;;;;;5410499;26;20031;-65
2024/04/24 07:17:26;;;;;;;17.20;15.50;;;;;;;;;;5411119;26;20357;-65
2024/04/24 07:19:52;;;;;;;17.80;16.00;;;;;;;;;;5411056;26;20042;-63
2024/04/24 07:22:18;;;;;;;17.80;16.00;;;;;;;;;;5410473;26;20015;-63
2024/04/24 07:24:44;;;;;;;18.52;16.73;;;;;;;;;;5410519;26;20035;-64
2024/04/24 07:27:10;;;;;;;18.42;16.20;;;;;;;;;;5410897;26;19999;-63
2024/04/24 07:29:36;;;;;;;17.40;15.60;;;;;;;;;;5410710;26;20073;-64
2024/04/24 07:32:02;;;;;;;16.58;14.88;;;;;;;;;;5410128;26;19992;-62
2024/04/24 07:34:28;;;;;;;16.67;14.98;;;;;;;;;;5410512;26;20499;-63
2024/04/24 07:36:54;;;;;;;16.60;14.90;;;;;;;;;;5410702;26;20016;-63
2024/04/24 07:39:20;;;;;;;16.70;15.00;;;;;;;;;;5410340;26;20002;-63
2024/04/24 07:41:46;;;;;;;16.17;14.48;;;;;;;;;;5410615;26;19992;-64
2024/04/24 07:44:12;;;;;;;15.93;14.23;;;;;;;;;;5409600;26;20027;-65
2024/04/24 07:46:38;;;;;;;15.40;13.70;;;;;;;;;;5410734;26;20011;-64
2024/04/24 07:49:04;;;;;;;15.80;14.10;;;;;;;;;;5413385;26;20054;-65
2024/04/24 07:51:30;;;;;;;15.60;13.90;;;;;;;;;;5413194;26;20074;-64
2024/04/24 07:53:56;;;;;;;17.10;14.70;;;;;;;;;;5413188;26;20038;-65
2024/04/24 07:56:22;;;;;;;15.85;13.77;;;;;;;;;;5413329;26;20011;-64
2024/04/24 07:58:48;;;;;;;16.98;15.23;;;;;;;;;;5414329;26;19991;-65
2024/04/24 08:01:14;;;;;;;15.50;13.80;;;;;;;;;;5414410;26;20007;-63
2024/04/24 08:03:41;;;;;;;15.43;13.73;;;;;;;;;;5418128;26;20517;-61
2024/04/24 08:06:07;;;;;;;15.55;13.82;;;;;;;;;;5450207;26;20013;-62
2024/04/24 08:08:37;;;;;;;15.40;13.60;;;;;;;;;;5449571;26;20469;-62
2024/04/24 08:11:03;;;;;;;15.95;14.00;;;;;;;;;;5448990;26;19994;-62
2024/04/24 08:13:29;;;;;;;19.80;14.18;;;;;;;;;;5448785;26;20003;-60
2024/04/24 08:15:55;;;;;;;15.45;13.75;;;;;;;;;;5449137;26;20468;-63
2024/04/24 08:18:21;;;;;;;15.77;14.07;;;;;;;;;;5449073;26;19991;-63
2024/04/24 08:20:48;;;;;;;15.07;12.68;;;;;;;;;;5447208;26;20001;-62
2024/04/24 08:23:14;;;;;;;14.90;12.40;;;;;;;;;;5448309;26;20007;-62
2024/04/24 08:25:40;;;;;;;15.40;12.60;;;;;;;;;;5449110;26;19998;-62
2024/04/24 08:28:06;;;;;;;14.82;11.93;;;;;;;;;;5449420;26;19991;-63
2024/04/24 08:30:32;;;;;;;15.00;11.27;;;;;;;;;;5448984;26;19991;-62
2024/04/24 08:32:59;;;;;;;14.05;9.98;;;;;;;;;;5443294;26;20082;-62
2024/04/24 08:35:25;;;;;;;13.98;9.65;;;;;;;;;;5413306;26;20073;-60
2024/04/24 08:37:51;;;;;;;14.10;10.07;;;;;;;;;;5412874;26;20065;-60
2024/04/24 08:40:17;;;;;;;14.00;9.73;;;;;;;;;;5412968;26;19999;-56
2024/04/24 08:42:44;;;;;;;15.85;10.02;;;;;;;;;;5412512;26;19996;-59
2024/04/24 08:45:10;;;;;;;13.65;8.90;;;;;;;;;;5412575;26;20008;-59
2024/04/24 08:47:36;;;;;;;16.30;9.18;;;;;;;;;;5412904;26;20384;-60
2024/04/24 08:50:02;;;;;;;13.82;8.73;;;;;;;;;;5412589;26;20151;-60
2024/04/24 08:52:28;;;;;;;13.52;8.55;;;;;;;;;;5412457;26;20005;-59
2024/04/24 08:54:58;;;;;;;13.55;8.38;;;;;;;;;;5412703;26;20073;-61
2024/04/24 08:57:25;;;;;;;13.90;8.40;;;;;;;;;;5412898;26;20007;-63
2024/04/24 08:59:53;;;;;;;13.90;8.90;;;;;;;;;;5412706;26;20003;-62
2024/04/24 09:02:21;;;;;;;;;;;;;;;;;;5413288;26;19999;-62
2024/04/24 09:04:47;;;;;;;13.38;8.10;;;;;;;;;;5412359;26;20299;-62
2024/04/24 09:07:15;;;;;;;13.75;8.65;;;;;;;;;;5412807;26;20029;-62
2024/04/24 09:09:41;;;;;;;14.15;8.10;;;;;;;;;;5410628;26;20003;-62
2024/04/24 09:12:08;;;;;;;12.93;7.60;;;;;;;;;;5412415;26;20023;-63
2024/04/24 09:14:34;;;;;;;13.10;7.72;;;;;;;;;;5410880;26;20050;-60
2024/04/24 09:17:00;;;;;;;12.38;7.20;;;;;;;;;;5413268;26;20010;-63
2024/04/24 09:19:27;;;;;;;13.15;8.00;;;;;;;;;;5413603;26;20006;-62
2024/04/24 09:21:53;;;;;;;12.68;7.45;;;;;;;;;;5412669;26;19992;-62
2024/04/24 09:24:19;;;;;;;13.13;8.52;;;;;;;;;;5412233;26;20015;-61
2024/04/24 09:26:47;;;;;;;12.43;7.22;;;;;;;;;;5412958;26;19995;-60
2024/04/24 09:29:13;;;;;;;11.73;6.83;;;;;;;;;;5412578;26;20502;-61
2024/04/24 09:31:40;;;;;;;11.10;6.50;;;;;;;;;;5412641;26;21074;-61
2024/04/24 09:34:12;;;;;;;11.40;6.65;;;;;;;;;;5412275;26;20335;-62
2024/04/24 09:36:40;;;;;;;11.73;6.80;;;;;;;;;;5412897;26;20432;-65
2024/04/24 09:39:10;;;;;;;11.75;7.10;;;;;;;;;;5412833;26;19991;-64
2024/04/24 09:41:37;;;;;;;11.43;6.70;;;;;;;;;;5411514;26;19996;-63
2024/04/24 09:44:03;;;;;;;11.55;6.70;;;;;;;;;;5411930;26;20445;-64
2024/04/24 09:46:29;;;;;;;12.85;7.00;;;;;;;;;;5412932;26;20000;-63
2024/04/24 09:48:59;;;;;;;12.45;7.43;;;;;;;;;;5410513;26;19996;-63
2024/04/24 09:51:25;;;;;;;11.40;6.53;;;;;;;;;;5412681;26;20092;-62
2024/04/24 09:53:51;;;;;;;11.80;6.88;;;;;;;;;;5413788;26;20011;-62
2024/04/24 09:56:22;;;;;;;12.90;7.40;;;;;;;;;;5415261;26;20014;-65
2024/04/24 09:58:51;;;;;;;13.60;8.32;;;;;;;;;;5411263;26;20622;-64
2024/04/24 10:01:18;;;;;;;12.77;7.45;;;;;;;;;;5412430;26;19992;-65
2024/04/24 10:03:47;;;;;;;13.55;8.35;;;;;;;;;;5407944;26;20091;-67
2024/04/24 10:06:16;;;;;;;13.30;7.90;;;;;;;;;;5409534;26;20004;-69
2024/04/24 10:08:43;;;;;;;15.85;8.93;;;;;;;;;;5406243;26;19992;-66
2024/04/24 10:11:11;;;;;;;13.18;7.97;;;;;;;;;;5408606;26;20556;-65
2024/04/24 10:13:38;;;;;;;13.40;8.13;;;;;;;;;;5410349;26;20010;-67
2024/04/24 10:16:04;;;;;;;13.68;8.18;;;;;;;;;;5410263;26;20415;-65
2024/04/24 10:18:31;;;;;;;12.98;7.55;;;;;;;;;;5411524;26;19999;-64
2024/04/24 10:20:57;;;;;;;13.35;7.90;;;;;;;;;;5411608;26;20708;-65
2024/04/24 10:23:25;;;;;;;13.20;7.70;;;;;;;;;;5409800;26;19995;-64
2024/04/24 10:25:51;;;;;;;13.37;8.03;;;;;;;;;;5412216;26;19995;-64
2024/04/24 10:28:18;;;;;;;13.45;8.30;;;;;;;;;;5412198;26;19999;-64
2024/04/24 10:30:44;;;;;;;13.15;7.80;;;;;;;;;;5411992;26;19996;-62
2024/04/24 10:33:11;;;;;;;13.52;8.45;;;;;;;;;;5411165;26;20508;-65
2024/04/24 10:35:37;;;;;;;13.60;8.77;;;;;;;;;;5411227;26;20028;-65
2024/04/24 10:38:06;;;;;;;13.80;9.20;;;;;;;;;;5411633;26;20006;-63
2024/04/24 10:40:33;;;;;;;13.70;8.98;;;;;;;;;;5411363;26;20006;-63
2024/04/24 10:42:59;;;;;;;13.80;9.30;;;;;;;;;;5410467;26;20553;-59
2024/04/24 10:45:26;;;;;;;13.55;8.73;;;;;;;;;;5411745;26;20010;-62
2024/04/24 10:47:53;;;;;;;13.60;8.90;;;;;;;;;;5410908;26;20003;-63
2024/04/24 10:50:19;;;;;;;13.80;9.20;;;;;;;;;;5411746;26;20460;-63
2024/04/24 10:52:46;;;;;;;13.68;8.98;;;;;;;;;;5411059;26;19999;-63
2024/04/24 10:55:14;;;;;;;13.70;9.10;;;;;;;;;;5410806;26;20038;-64
2024/04/24 10:57:44;;;;;;;13.55;8.50;;;;;;;;;;5411609;26;20441;-64
2024/04/24 11:00:17;;;;;;;13.52;8.50;;;;;;;;;;5411476;26;20003;-64
2024/04/24 11:02:44;;;;;;;13.50;8.50;;;;;;;;;;5410745;26;20007;-63
2024/04/24 11:05:10;;;;;;;13.57;8.80;;;;;;;;;;5410448;26;20079;-64
2024/04/24 11:07:36;;;;;;;13.60;8.68;;;;;;;;;;5410901;26;19995;-64
2024/04/24 11:10:03;;;;;;;13.68;8.98;;;;;;;;;;5410691;26;20028;-63
2024/04/24 11:12:29;;;;;;;13.68;8.80;;;;;;;;;;5410171;26;19999;-64
2024/04/24 11:14:55;;;;;;;13.65;8.98;;;;;;;;;;5409929;26;20037;-64
2024/04/24 11:17:25;;;;;;;22.77;9.00;;;;;;;;;;5411143;26;20010;-64
2024/04/24 11:19:51;;;;;;;13.75;9.00;;;;;;;;;;5411178;26;20021;-63
2024/04/24 11:22:26;;;;;;;13.70;9.07;;;;;;;;;;5410500;26;20379;-64
2024/04/24 11:24:52;;;;;;;14.10;10.05;;;;;;;;;;5410307;26;20076;-61
2024/04/24 11:27:23;;;;;;;14.18;9.95;;;;;;;;;;5410473;26;19998;-64
2024/04/24 11:29:49;;;;;;;14.30;10.70;;;;;;;;;;5411248;26;20065;-64
2024/04/24 11:32:16;;;;;;;18.75;16.95;;;;;;;;;;5409997;26;19987;-66
2024/04/24 11:34:42;;;;;;;19.27;17.48;;;;;;;;;;5440550;26;19995;-62
2024/04/24 11:37:08;;;;;;;20.40;18.50;;;;;;;;;;5444192;26;20073;-63
2024/04/24 11:39:35;;;;;;;20.83;18.92;;;;;;;;;;5446352;26;20385;-61
2024/04/24 11:42:01;;;;;;;21.00;19.10;;;;;;;;;;5445509;26;20021;-61
2024/04/24 11:44:28;;;;;;;20.23;18.33;;;;;;;;;;5445569;26;19995;-62
2024/04/24 11:46:56;;;;;;;19.27;17.48;;;;;;;;;;5446633;26;20006;-62
2024/04/24 11:49:23;;;;;;;17.80;16.00;;;;;;;;;;5445890;26;20007;-62
2024/04/24 11:51:49;;;;;;;15.82;14.13;;;;;;;;;;5445925;26;20002;-62
2024/04/24 11:54:15;;;;;;;15.32;13.35;;;;;;;;;;5445085;26;20003;-62
2024/04/24 11:56:44;;;;;;;14.57;11.55;;;;;;;;;;5445618;26;19999;-62
2024/04/24 11:59:10;;;;;;;;;;;;;;;;;;5446824;26;20622;-63
2024/04/24 12:01:39;;;;;;;14.80;11.60;;;;;;;;;;5445364;26;19924;-66
2024/04/24 12:04:06;;;;;;;14.80;11.70;;;;;;;;;;5445580;26;20068;-63
2024/04/24 12:06:39;;;;;;;14.60;11.10;;;;;;;;;;5445978;26;20006;-65
2024/04/24 12:09:05;;;;;;;14.50;11.15;;;;;;;;;;5443592;26;20490;-63
2024/04/24 12:11:41;;;;;;;14.57;11.20;;;;;;;;;;5445832;26;19991;-62
2024/04/24 12:14:07;;;;;;;14.25;10.48;;;;;;;;;;5418984;26;20018;-64
2024/04/24 12:16:33;;;;;;;13.90;9.90;;;;;;;;;;5409505;26;20487;-63
2024/04/24 12:18:59;;;;;;;13.85;9.43;;;;;;;;;;5410167;26;20492;-61
2024/04/24 12:21:25;;;;;;;13.70;8.98;;;;;;;;;;5409956;26;20458;-64
2024/04/24 12:23:51;;;;;;;13.82;9.40;;;;;;;;;;5408779;26;20018;-64
2024/04/24 12:26:17;;;;;;;13.90;9.68;;;;;;;;;;5409946;26;19991;-65
2024/04/24 12:28:43;;;;;;;13.95;9.75;;;;;;;;;;5409618;26;19991;-61
2024/04/24 12:31:09;;;;;;;13.88;9.38;;;;;;;;;;5408740;26;20036;-66
2024/04/24 12:33:36;;;;;;;13.68;8.88;;;;;;;;;;5409879;26;20000;-62
2024/04/24 12:36:03;;;;;;;13.68;8.88;;;;;;;;;;5412847;26;20459;-64
2024/04/24 12:38:29;;;;;;;13.60;8.55;;;;;;;;;;5412632;26;20111;-64
2024/04/24 12:40:55;;;;;;;13.50;8.20;;;;;;;;;;5405939;26;20109;-64
2024/04/24 12:43:21;;;;;;;13.32;7.88;;;;;;;;;;5412474;26;19991;-59
2024/04/24 12:45:47;;;;;;;13.52;8.32;;;;;;;;;;5424924;26;19996;-65
2024/04/24 12:48:13;;;;;;;13.55;8.43;;;;;;;;;;5420657;26;20561;-65
2024/04/24 12:50:39;;;;;;;13.05;7.60;;;;;;;;;;5448599;26;19994;-62
2024/04/24 12:53:05;;;;;;;13.48;8.45;;;;;;;;;;5430463;26;19992;-62
2024/04/24 12:55:31;;;;;;;13.43;8.40;;;;;;;;;;5412060;26;20518;-64
2024/04/24 12:57:57;;;;;;;13.57;8.65;;;;;;;;;;5412367;26;19995;-62
2024/04/24 13:00:26;;;;;;;14.15;10.15;;;;;;;;;;5412123;26;20453;-61
2024/04/24 13:02:52;;;;;;;17.42;15.63;;;;;;;;;;5446571;26;20009;-64
2024/04/24 13:05:18;;;;;;;30.15;27.75;;;;;;;;;;5447902;26;20599;-61
2024/04/24 13:07:44;;;;;;;37.50;34.90;;;;;;;;;;5442440;26;20022;-61
2024/04/24 13:10:10;;;;;;;35.92;33.42;;;;;;;;;;5446732;26;19999;-62
2024/04/24 13:12:36;;;;;;;34.58;32.17;;;;;;;;;;5448245;26;19991;-62
2024/04/24 13:15:03;;;;;;;29.92;27.73;;;;;;;;;;5448723;26;20067;-61
2024/04/24 13:17:29;;;;;;;26.48;24.38;;;;;;;;;;5444998;26;20010;-60
2024/04/24 13:19:55;;;;;;;24.65;22.65;;;;;;;;;;5447400;26;19991;-61
2024/04/24 13:22:21;;;;;;;20.52;18.63;;;;;;;;;;5448187;26;20029;-61
2024/04/24 13:24:47;;;;;;;18.70;16.90;;;;;;;;;;5446503;26;19998;-61
2024/04/24 13:27:13;;;;;;;18.13;16.33;;;;;;;;;;5447965;26;20200;-62
2024/04/24 13:29:39;;;;;;;17.85;16.05;;;;;;;;;;5447991;26;20154;-59
2024/04/24 13:32:05;;;;;;;17.52;15.73;;;;;;;;;;5448264;26;19994;-59
2024/04/24 13:34:32;;;;;;;17.00;15.25;;;;;;;;;;5419485;26;20093;-63
2024/04/24 13:36:58;;;;;;;17.20;15.40;;;;;;;;;;5410193;26;19991;-63
2024/04/24 13:39:24;;;;;;;16.65;14.95;;;;;;;;;;5412345;26;20047;-61
2024/04/24 13:41:50;;;;;;;17.10;15.40;;;;;;;;;;5405287;26;19996;-66
2024/04/24 13:44:16;;;;;;;16.92;15.23;;;;;;;;;;5412771;26;20485;-67
2024/04/24 13:46:45;;;;;;;17.52;15.73;;;;;;;;;;5412601;26;20045;-62
2024/04/24 13:49:11;;;;;;;16.60;14.90;;;;;;;;;;5412161;26;20074;-67
2024/04/24 13:51:37;;;;;;;15.30;13.40;;;;;;;;;;5409714;26;20004;-63
2024/04/24 13:54:06;;;;;;;14.70;11.57;;;;;;;;;;5411068;26;19995;-65
2024/04/24 13:56:32;;;;;;;14.18;10.43;;;;;;;;;;5411700;26;20002;-63
2024/04/24 13:58:58;;;;;;;13.93;9.60;;;;;;;;;;5411478;26;19992;-59
2024/04/24 14:01:24;;;;;;;13.88;9.35;;;;;;;;;;5411408;26;20006;-64
2024/04/24 14:03:50;;;;;;;13.48;8.30;;;;;;;;;;5411366;26;20068;-62
2024/04/24 14:06:16;;;;;;;13.35;8.15;;;;;;;;;;5411547;26;20007;-60
2024/04/24 14:08:42;;;;;;;11.90;6.95;;;;;;;;;;5423882;26;20453;-62
2024/04/24 14:11:12;;;;;;;12.45;7.25;;;;;;;;;;5448195;26;20002;-61
2024/04/24 14:13:38;;;;;;;12.77;7.50;;;;;;;;;;5445055;26;20003;-63
2024/04/24 14:16:04;;;;;;;13.27;8.10;;;;;;;;;;5446019;26;19987;-65
2024/04/24 14:18:30;;;;;;;13.82;9.43;;;;;;;;;;5447780;26;19995;-65
2024/04/24 14:20:57;;;;;;;15.35;13.65;;;;;;;;;;5447534;26;20440;-64
2024/04/24 14:23:23;;;;;;;16.25;14.55;;;;;;;;;;5447229;26;20278;-64
2024/04/24 14:25:49;;;;;;;16.95;15.25;;;;;;;;;;5446910;26;19995;-61